EST,Max TemperatureF,Mean TemperatureF,Min TemperatureF,Max Dew PointF,MeanDew PointF,Min DewpointF,Max Humidity, Mean Humidity, Min Humidity, Max Sea Level PressureIn, Mean Sea Level PressureIn, Min Sea Level PressureIn, Max VisibilityMiles, Mean VisibilityMiles, Min VisibilityMiles, Max Wind SpeedMPH, Mean Wind SpeedMPH, Max Gust SpeedMPH,PrecipitationIn, CloudCover, Events, WindDirDegrees
2012-12-1,82,71,60,63,60,55,93,68,42,30.20,30.16,30.12,10,10,10,17,9,22,0.00,1,,51
2012-12-2,83,73,63,65,63,57,100,72,43,30.23,30.18,30.13,10,10,10,17,8,23,0.00,1,,54
2012-12-3,83,72,60,65,60,55,100,73,45,30.24,30.19,30.14,10,10,9,17,7,24,0.00,1,,53
2012-12-4,81,70,58,63,59,55,100,73,45,30.24,30.19,30.14,10,10,10,16,7,21,0.00,4,,54
2012-12-5,78,69,60,64,62,58,97,78,58,30.16,30.08,30.03,10,10,10,10,5,14,0.00,5,,43
2012-12-6,81,72,63,69,65,62,100,79,58,30.03,29.97,29.91,10,10,6,12,4,16,0.11,4,Rain,63
2012-12-7,79,71,62,68,65,62,100,81,62,29.99,29.95,29.91,10,10,5,9,3,14,0.00,1,,15
2012-12-8,81,73,65,72,68,65,100,81,62,30.04,29.99,29.96,10,10,8,13,3,15,T,5,,85
2012-12-9,83,74,64,72,69,65,100,87,74,30.09,30.03,29.99,10,7,0,9,3,13,0.00,3,Fog,77
2012-12-10,84,77,69,76,72,68,100,87,74,30.02,29.97,29.90,10,7,0,20,8,25,0.31,6,Fog-Rain-Thunderstorm,144
2012-12-11,80,76,71,75,73,68,100,91,82,30.05,29.97,29.93,10,6,1,17,6,89,1.22,6,Rain-Thunderstorm,165
2012-12-12,79,76,73,75,74,73,100,94,88,30.07,30.04,29.99,9,7,3,17,7,23,0.01,6,,166
2012-12-13,73,68,63,72,67,59,100,89,78,30.14,30.09,30.03,10,8,2,17,7,23,T,7,Rain,352
2012-12-14,79,69,59,63,60,57,100,77,54,30.15,30.10,30.05,10,10,6,18,10,23,0.00,4,,41
2012-12-15,82,72,61,66,63,61,100,77,54,30.11,30.06,30.01,10,9,7,13,6,17,0.00,1,,63
2012-12-16,81,71,61,68,65,62,100,79,58,30.05,30.00,29.94,10,10,10,13,5,17,0.00,2,,115
2012-12-17,80,73,65,72,69,65,100,86,71,29.99,29.95,29.91,10,9,2,17,5,22,0.00,2,,202
2012-12-18,79,72,65,72,69,64,100,90,79,30.03,29.96,29.91,10,4,0,12,4,14,0.00,2,Fog,260
2012-12-19,82,70,58,67,61,54,100,75,50,30.11,30.05,30.03,10,9,5,10,4,13,0.00,0,,25
2012-12-20,82,72,62,70,65,60,100,77,54,30.09,30.04,29.97,10,10,7,18,7,23,0.00,1,,157
2012-12-21,73,63,52,70,52,39,100,70,40,30.21,30.10,29.98,10,9,2,20,12,28,0.06,3,Rain,323
2012-12-22,66,56,45,41,36,27,76,50,24,30.30,30.24,30.19,10,10,10,13,5,17,0.00,0,,358
2012-12-23,72,57,42,55,46,33,93,69,44,30.26,30.19,30.14,10,10,10,10,3,16,0.00,0,,59
2012-12-24,76,64,51,60,56,51,100,77,54,30.14,30.07,29.99,10,10,9,14,4,17,0.00,0,,142
2012-12-25,79,68,56,63,60,57,100,75,50,30.03,29.97,29.90,10,10,9,14,5,18,0.00,0,,140
2012-12-26,79,71,63,72,65,57,100,88,76,30.01,29.93,29.86,10,8,2,23,11,32,0.07,5,Rain,269
2012-12-27,67,60,52,55,51,46,93,73,52,30.10,30.04,30.01,10,10,10,13,5,16,0.00,1,,354
2012-12-28,79,65,50,71,61,48,96,80,64,30.07,30.01,29.95,10,10,9,15,8,18,0.00,5,,112
2012-12-29,78,75,71,74,69,54,100,91,82,30.15,30.00,29.94,10,8,6,16,11,21,0.00,5,,223
2012-12-30,65,56,47,53,45,38,83,64,44,30.30,30.25,30.15,10,10,10,18,10,23,0.00,0,,28
2012-12-31,77,63,49,58,54,47,100,74,47,30.30,30.24,30.17,10,9,7,16,7,22,0.00,1,,78